sensor_id;sensor_type;location;lat;lon;timestamp;P1;durP1;ratioP1;P2;durP2;ratioP2
79308;SDS011;68767;53.078;7.386;2023-07-31T00:00:04;6.00;;;2.88;;
79308;SDS011;68767;53.078;7.386;2023-07-31T00:02:32;8.07;;;2.45;;
79308;SDS011;68767;53.078;7.386;2023-07-31T00:04:59;4.85;;;2.30;;
79308;SDS011;68767;53.078;7.386;2023-07-31T00:07:26;7.07;;;2.50;;
79308;SDS011;68767;53.078;7.386;2023-07-31T00:09:53;6.28;;;2.13;;
79308;SDS011;68767;53.078;7.386;2023-07-31T00:12:20;7.68;;;2.50;;
79308;SDS011;68767;53.078;7.386;2023-07-31T00:14:47;5.32;;;2.30;;
79308;SDS011;68767;53.078;7.386;2023-07-31T00:17:14;7.10;;;2.53;;
79308;SDS011;68767;53.078;7.386;2023-07-31T00:19:41;5.63;;;2.03;;
79308;SDS011;68767;53.078;7.386;2023-07-31T00:22:08;6.65;;;2.78;;
79308;SDS011;68767;53.078;7.386;2023-07-31T00:24:35;5.45;;;1.98;;
79308;SDS011;68767;53.078;7.386;2023-07-31T00:27:02;7.53;;;2.60;;
79308;SDS011;68767;53.078;7.386;2023-07-31T00:29:29;6.53;;;1.83;;
79308;SDS011;68767;53.078;7.386;2023-07-31T00:31:56;5.15;;;2.63;;
79308;SDS011;68767;53.078;7.386;2023-07-31T00:34:23;4.85;;;2.10;;
79308;SDS011;68767;53.078;7.386;2023-07-31T00:36:50;6.07;;;2.78;;
79308;SDS011;68767;53.078;7.386;2023-07-31T00:39:17;8.85;;;3.10;;
79308;SDS011;68767;53.078;7.386;2023-07-31T00:41:43;4.70;;;2.47;;
79308;SDS011;68767;53.078;7.386;2023-07-31T00:44:10;6.10;;;2.95;;
79308;SDS011;68767;53.078;7.386;2023-07-31T00:46:37;7.05;;;3.35;;
79308;SDS011;68767;53.078;7.386;2023-07-31T00:49:05;8.13;;;2.95;;
79308;SDS011;68767;53.078;7.386;2023-07-31T00:51:32;7.85;;;2.47;;
79308;SDS011;68767;53.078;7.386;2023-07-31T00:53:59;7.13;;;3.03;;
79308;SDS011;68767;53.078;7.386;2023-07-31T00:56:27;10.15;;;4.55;;
79308;SDS011;68767;53.078;7.386;2023-07-31T00:58:54;13.50;;;5.50;;
79308;SDS011;68767;53.078;7.386;2023-07-31T01:01:22;5.97;;;3.30;;
79308;SDS011;68767;53.078;7.386;2023-07-31T01:03:49;8.68;;;3.47;;
79308;SDS011;68767;53.078;7.386;2023-07-31T01:06:40;7.43;;;3.22;;
79308;SDS011;68767;53.078;7.386;2023-07-31T01:12:15;6.38;;;3.28;;
79308;SDS011;68767;53.078;7.386;2023-07-31T01:17:30;9.40;;;4.22;;
79308;SDS011;68767;53.078;7.386;2023-07-31T01:19:59;7.57;;;3.65;;
79308;SDS011;68767;53.078;7.386;2023-07-31T01:28:13;5.88;;;3.40;;
79308;SDS011;68767;53.078;7.386;2023-07-31T01:30:44;9.60;;;3.72;;
79308;SDS011;68767;53.078;7.386;2023-07-31T01:33:17;7.47;;;3.65;;
79308;SDS011;68767;53.078;7.386;2023-07-31T01:35:45;9.38;;;4.43;;
79308;SDS011;68767;53.078;7.386;2023-07-31T01:38:15;8.52;;;4.20;;
79308;SDS011;68767;53.078;7.386;2023-07-31T01:40:42;7.85;;;4.07;;
79308;SDS011;68767;53.078;7.386;2023-07-31T01:43:09;9.90;;;4.55;;
79308;SDS011;68767;53.078;7.386;2023-07-31T01:45:36;17.55;;;8.73;;
79308;SDS011;68767;53.078;7.386;2023-07-31T01:48:03;11.65;;;5.10;;
79308;SDS011;68767;53.078;7.386;2023-07-31T01:50:31;9.60;;;4.22;;
79308;SDS011;68767;53.078;7.386;2023-07-31T01:52:57;8.48;;;4.72;;
79308;SDS011;68767;53.078;7.386;2023-07-31T01:55:24;11.73;;;4.78;;
79308;SDS011;68767;53.078;7.386;2023-07-31T01:57:51;10.00;;;4.95;;
79308;SDS011;68767;53.078;7.386;2023-07-31T02:00:19;10.75;;;5.15;;
79308;SDS011;68767;53.078;7.386;2023-07-31T02:02:46;10.13;;;5.40;;
79308;SDS011;68767;53.078;7.386;2023-07-31T02:05:13;12.02;;;5.38;;
79308;SDS011;68767;53.078;7.386;2023-07-31T02:07:40;10.45;;;5.75;;
79308;SDS011;68767;53.078;7.386;2023-07-31T02:10:07;10.60;;;4.90;;
79308;SDS011;68767;53.078;7.386;2023-07-31T02:12:34;13.40;;;6.20;;
79308;SDS011;68767;53.078;7.386;2023-07-31T02:15:01;12.88;;;6.50;;
79308;SDS011;68767;53.078;7.386;2023-07-31T02:17:28;10.98;;;5.03;;
79308;SDS011;68767;53.078;7.386;2023-07-31T02:19:56;9.85;;;4.47;;
79308;SDS011;68767;53.078;7.386;2023-07-31T02:22:23;10.57;;;5.07;;
79308;SDS011;68767;53.078;7.386;2023-07-31T02:24:50;8.07;;;4.60;;
79308;SDS011;68767;53.078;7.386;2023-07-31T02:27:19;8.18;;;4.20;;
79308;SDS011;68767;53.078;7.386;2023-07-31T02:29:51;7.07;;;4.10;;
79308;SDS011;68767;53.078;7.386;2023-07-31T02:32:18;6.95;;;4.28;;
79308;SDS011;68767;53.078;7.386;2023-07-31T02:34:45;8.00;;;3.55;;
79308;SDS011;68767;53.078;7.386;2023-07-31T02:37:12;9.07;;;4.18;;
79308;SDS011;68767;53.078;7.386;2023-07-31T02:39:39;7.22;;;3.10;;
79308;SDS011;68767;53.078;7.386;2023-07-31T02:42:06;7.95;;;3.35;;
79308;SDS011;68767;53.078;7.386;2023-07-31T02:44:33;6.50;;;3.60;;
79308;SDS011;68767;53.078;7.386;2023-07-31T02:46:59;6.38;;;3.70;;
79308;SDS011;68767;53.078;7.386;2023-07-31T02:49:26;5.80;;;2.92;;
79308;SDS011;68767;53.078;7.386;2023-07-31T02:51:53;10.73;;;2.83;;
79308;SDS011;68767;53.078;7.386;2023-07-31T02:54:20;4.07;;;2.40;;
79308;SDS011;68767;53.078;7.386;2023-07-31T02:56:48;6.18;;;2.92;;
79308;SDS011;68767;53.078;7.386;2023-07-31T02:59:17;5.10;;;3.03;;
79308;SDS011;68767;53.078;7.386;2023-07-31T03:01:44;5.30;;;2.72;;
79308;SDS011;68767;53.078;7.386;2023-07-31T03:04:11;5.25;;;2.70;;
79308;SDS011;68767;53.078;7.386;2023-07-31T03:06:38;5.95;;;2.80;;
79308;SDS011;68767;53.078;7.386;2023-07-31T03:09:06;5.47;;;2.90;;
79308;SDS011;68767;53.078;7.386;2023-07-31T03:11:33;9.98;;;3.08;;
79308;SDS011;68767;53.078;7.386;2023-07-31T03:14:00;6.05;;;3.47;;
79308;SDS011;68767;53.078;7.386;2023-07-31T03:16:27;6.00;;;3.47;;
79308;SDS011;68767;53.078;7.386;2023-07-31T03:18:54;5.32;;;2.85;;
79308;SDS011;68767;53.078;7.386;2023-07-31T03:21:21;5.85;;;3.63;;
79308;SDS011;68767;53.078;7.386;2023-07-31T03:23:48;5.93;;;3.80;;
79308;SDS011;68767;53.078;7.386;2023-07-31T03:26:15;9.15;;;3.65;;
79308;SDS011;68767;53.078;7.386;2023-07-31T03:28:42;5.22;;;3.47;;
79308;SDS011;68767;53.078;7.386;2023-07-31T03:31:09;7.20;;;3.75;;
79308;SDS011;68767;53.078;7.386;2023-07-31T03:33:39;6.50;;;3.90;;
79308;SDS011;68767;53.078;7.386;2023-07-31T03:36:06;7.63;;;3.85;;
79308;SDS011;68767;53.078;7.386;2023-07-31T03:38:33;5.10;;;3.10;;
79308;SDS011;68767;53.078;7.386;2023-07-31T03:41:00;5.32;;;3.10;;
79308;SDS011;68767;53.078;7.386;2023-07-31T03:43:28;6.93;;;3.42;;
79308;SDS011;68767;53.078;7.386;2023-07-31T03:45:55;7.65;;;3.45;;
79308;SDS011;68767;53.078;7.386;2023-07-31T03:48:23;5.15;;;3.05;;
79308;SDS011;68767;53.078;7.386;2023-07-31T03:50:50;8.63;;;3.58;;
79308;SDS011;68767;53.078;7.386;2023-07-31T03:53:21;6.30;;;3.75;;
79308;SDS011;68767;53.078;7.386;2023-07-31T03:55:48;4.70;;;3.35;;
79308;SDS011;68767;53.078;7.386;2023-07-31T03:58:14;6.70;;;3.70;;
79308;SDS011;68767;53.078;7.386;2023-07-31T04:00:41;23.70;;;10.65;;
79308;SDS011;68767;53.078;7.386;2023-07-31T04:03:08;5.60;;;3.10;;
79308;SDS011;68767;53.078;7.386;2023-07-31T04:05:37;5.30;;;3.05;;
79308;SDS011;68767;53.078;7.386;2023-07-31T04:08:05;6.28;;;3.50;;
79308;SDS011;68767;53.078;7.386;2023-07-31T04:10:32;5.45;;;3.22;;
79308;SDS011;68767;53.078;7.386;2023-07-31T04:13:00;9.18;;;3.50;;
79308;SDS011;68767;53.078;7.386;2023-07-31T04:15:27;5.45;;;3.53;;
79308;SDS011;68767;53.078;7.386;2023-07-31T04:17:54;6.05;;;3.13;;
79308;SDS011;68767;53.078;7.386;2023-07-31T04:20:21;6.55;;;3.55;;
79308;SDS011;68767;53.078;7.386;2023-07-31T04:22:48;6.22;;;3.45;;
79308;SDS011;68767;53.078;7.386;2023-07-31T04:25:15;30.80;;;15.82;;
79308;SDS011;68767;53.078;7.386;2023-07-31T04:27:42;5.43;;;3.25;;
79308;SDS011;68767;53.078;7.386;2023-07-31T04:30:09;7.90;;;3.83;;
79308;SDS011;68767;53.078;7.386;2023-07-31T04:32:36;6.05;;;3.55;;
79308;SDS011;68767;53.078;7.386;2023-07-31T04:35:03;8.07;;;3.90;;
79308;SDS011;68767;53.078;7.386;2023-07-31T04:37:30;7.70;;;4.03;;
79308;SDS011;68767;53.078;7.386;2023-07-31T04:39:57;5.68;;;3.35;;
79308;SDS011;68767;53.078;7.386;2023-07-31T04:42:24;6.07;;;3.45;;
79308;SDS011;68767;53.078;7.386;2023-07-31T04:44:51;5.95;;;3.72;;
79308;SDS011;68767;53.078;7.386;2023-07-31T04:47:19;8.30;;;3.35;;
79308;SDS011;68767;53.078;7.386;2023-07-31T04:49:46;7.88;;;3.72;;
79308;SDS011;68767;53.078;7.386;2023-07-31T04:52:13;6.15;;;3.55;;
79308;SDS011;68767;53.078;7.386;2023-07-31T04:54:40;5.93;;;2.95;;
79308;SDS011;68767;53.078;7.386;2023-07-31T04:57:10;6.30;;;3.80;;
79308;SDS011;68767;53.078;7.386;2023-07-31T04:59:37;8.95;;;3.75;;
79308;SDS011;68767;53.078;7.386;2023-07-31T05:02:04;7.30;;;3.75;;
79308;SDS011;68767;53.078;7.386;2023-07-31T05:04:31;6.68;;;4.25;;
79308;SDS011;68767;53.078;7.386;2023-07-31T05:06:58;7.75;;;4.45;;
79308;SDS011;68767;53.078;7.386;2023-07-31T05:09:25;6.05;;;3.55;;
79308;SDS011;68767;53.078;7.386;2023-07-31T05:11:52;9.75;;;4.35;;
79308;SDS011;68767;53.078;7.386;2023-07-31T05:14:19;9.95;;;4.38;;
79308;SDS011;68767;53.078;7.386;2023-07-31T05:16:46;7.75;;;3.78;;
79308;SDS011;68767;53.078;7.386;2023-07-31T05:19:13;7.28;;;4.10;;
79308;SDS011;68767;53.078;7.386;2023-07-31T05:21:40;6.90;;;4.15;;
79308;SDS011;68767;53.078;7.386;2023-07-31T05:24:07;8.23;;;4.03;;
79308;SDS011;68767;53.078;7.386;2023-07-31T05:26:37;8.35;;;3.83;;
79308;SDS011;68767;53.078;7.386;2023-07-31T05:29:05;6.00;;;3.67;;
79308;SDS011;68767;53.078;7.386;2023-07-31T05:31:31;7.03;;;4.43;;
79308;SDS011;68767;53.078;7.386;2023-07-31T05:33:59;6.72;;;4.10;;
79308;SDS011;68767;53.078;7.386;2023-07-31T05:36:26;10.40;;;5.05;;
79308;SDS011;68767;53.078;7.386;2023-07-31T05:38:53;7.82;;;4.63;;
79308;SDS011;68767;53.078;7.386;2023-07-31T05:41:19;6.32;;;3.97;;
79308;SDS011;68767;53.078;7.386;2023-07-31T05:43:46;8.10;;;3.90;;
79308;SDS011;68767;53.078;7.386;2023-07-31T05:46:13;12.00;;;4.03;;
79308;SDS011;68767;53.078;7.386;2023-07-31T05:48:40;6.43;;;3.72;;
79308;SDS011;68767;53.078;7.386;2023-07-31T05:51:08;7.07;;;3.20;;
79308;SDS011;68767;53.078;7.386;2023-07-31T05:53:35;7.43;;;3.13;;
79308;SDS011;68767;53.078;7.386;2023-07-31T05:56:05;5.90;;;2.90;;
79308;SDS011;68767;53.078;7.386;2023-07-31T05:58:31;7.25;;;2.90;;
79308;SDS011;68767;53.078;7.386;2023-07-31T06:00:58;5.20;;;2.10;;
79308;SDS011;68767;53.078;7.386;2023-07-31T06:03:25;4.07;;;1.80;;
79308;SDS011;68767;53.078;7.386;2023-07-31T06:05:52;5.80;;;2.03;;
79308;SDS011;68767;53.078;7.386;2023-07-31T06:08:19;4.80;;;1.90;;
79308;SDS011;68767;53.078;7.386;2023-07-31T06:10:46;5.05;;;1.92;;
79308;SDS011;68767;53.078;7.386;2023-07-31T06:13:13;2.78;;;1.33;;
79308;SDS011;68767;53.078;7.386;2023-07-31T06:15:40;3.50;;;1.88;;
79308;SDS011;68767;53.078;7.386;2023-07-31T06:18:07;3.28;;;1.42;;
79308;SDS011;68767;53.078;7.386;2023-07-31T06:20:34;2.90;;;1.40;;
79308;SDS011;68767;53.078;7.386;2023-07-31T06:23:01;3.25;;;1.27;;
79308;SDS011;68767;53.078;7.386;2023-07-31T06:25:29;4.60;;;1.70;;
79308;SDS011;68767;53.078;7.386;2023-07-31T06:27:55;6.72;;;2.35;;
79308;SDS011;68767;53.078;7.386;2023-07-31T06:30:22;10.57;;;3.30;;
79308;SDS011;68767;53.078;7.386;2023-07-31T06:32:49;11.57;;;3.30;;
79308;SDS011;68767;53.078;7.386;2023-07-31T06:35:18;8.45;;;2.88;;
79308;SDS011;68767;53.078;7.386;2023-07-31T06:37:45;13.20;;;3.85;;
79308;SDS011;68767;53.078;7.386;2023-07-31T06:40:12;18.63;;;5.43;;
79308;SDS011;68767;53.078;7.386;2023-07-31T06:42:38;17.38;;;4.75;;
79308;SDS011;68767;53.078;7.386;2023-07-31T06:45:05;15.20;;;4.75;;
79308;SDS011;68767;53.078;7.386;2023-07-31T06:47:34;20.83;;;5.90;;
79308;SDS011;68767;53.078;7.386;2023-07-31T06:50:01;25.58;;;6.07;;
79308;SDS011;68767;53.078;7.386;2023-07-31T06:52:28;15.70;;;5.85;;
79308;SDS011;68767;53.078;7.386;2023-07-31T06:55:16;29.33;;;6.78;;
79308;SDS011;68767;53.078;7.386;2023-07-31T06:57:45;21.35;;;7.10;;
79308;SDS011;68767;53.078;7.386;2023-07-31T07:00:13;26.58;;;6.85;;
79308;SDS011;68767;53.078;7.386;2023-07-31T07:02:41;27.85;;;8.10;;
79308;SDS011;68767;53.078;7.386;2023-07-31T07:05:08;28.65;;;7.80;;
79308;SDS011;68767;53.078;7.386;2023-07-31T07:07:35;25.15;;;8.63;;
79308;SDS011;68767;53.078;7.386;2023-07-31T07:10:02;30.02;;;7.68;;
79308;SDS011;68767;53.078;7.386;2023-07-31T07:12:30;34.65;;;8.43;;
79308;SDS011;68767;53.078;7.386;2023-07-31T07:14:58;29.05;;;9.35;;
79308;SDS011;68767;53.078;7.386;2023-07-31T07:17:26;28.70;;;7.80;;
79308;SDS011;68767;53.078;7.386;2023-07-31T07:19:54;30.17;;;8.90;;
79308;SDS011;68767;53.078;7.386;2023-07-31T07:22:22;34.30;;;9.40;;
79308;SDS011;68767;53.078;7.386;2023-07-31T07:24:49;28.88;;;8.85;;
79308;SDS011;68767;53.078;7.386;2023-07-31T07:27:16;24.52;;;8.60;;
79308;SDS011;68767;53.078;7.386;2023-07-31T07:29:43;33.30;;;9.63;;
79308;SDS011;68767;53.078;7.386;2023-07-31T07:32:10;25.30;;;10.25;;
79308;SDS011;68767;53.078;7.386;2023-07-31T07:34:38;34.78;;;9.45;;
79308;SDS011;68767;53.078;7.386;2023-07-31T07:37:05;34.13;;;10.57;;
79308;SDS011;68767;53.078;7.386;2023-07-31T07:39:32;38.90;;;12.45;;
79308;SDS011;68767;53.078;7.386;2023-07-31T07:41:59;31.90;;;10.82;;
79308;SDS011;68767;53.078;7.386;2023-07-31T07:44:26;32.95;;;10.25;;
79308;SDS011;68767;53.078;7.386;2023-07-31T07:46:53;30.25;;;11.07;;
79308;SDS011;68767;53.078;7.386;2023-07-31T07:49:20;28.40;;;10.65;;
79308;SDS011;68767;53.078;7.386;2023-07-31T07:51:49;36.42;;;10.93;;
79308;SDS011;68767;53.078;7.386;2023-07-31T07:54:16;30.63;;;12.25;;
79308;SDS011;68767;53.078;7.386;2023-07-31T07:56:49;34.42;;;11.80;;
79308;SDS011;68767;53.078;7.386;2023-07-31T07:59:16;35.22;;;11.45;;
79308;SDS011;68767;53.078;7.386;2023-07-31T08:01:43;30.40;;;10.10;;
79308;SDS011;68767;53.078;7.386;2023-07-31T08:04:10;32.50;;;10.68;;
79308;SDS011;68767;53.078;7.386;2023-07-31T08:06:37;34.22;;;9.70;;
79308;SDS011;68767;53.078;7.386;2023-07-31T08:09:04;24.42;;;9.23;;
79308;SDS011;68767;53.078;7.386;2023-07-31T08:11:33;27.08;;;9.15;;
79308;SDS011;68767;53.078;7.386;2023-07-31T08:14:00;23.13;;;8.32;;
79308;SDS011;68767;53.078;7.386;2023-07-31T08:16:27;19.55;;;6.45;;
79308;SDS011;68767;53.078;7.386;2023-07-31T08:18:54;19.10;;;6.90;;
79308;SDS011;68767;53.078;7.386;2023-07-31T08:21:24;17.70;;;6.72;;
79308;SDS011;68767;53.078;7.386;2023-07-31T08:23:51;19.08;;;7.22;;
79308;SDS011;68767;53.078;7.386;2023-07-31T08:26:18;35.10;;;7.53;;
79308;SDS011;68767;53.078;7.386;2023-07-31T08:28:45;15.05;;;5.90;;
79308;SDS011;68767;53.078;7.386;2023-07-31T08:31:12;17.10;;;6.57;;
79308;SDS011;68767;53.078;7.386;2023-07-31T08:33:39;23.60;;;7.13;;
79308;SDS011;68767;53.078;7.386;2023-07-31T08:36:06;15.82;;;7.22;;
79308;SDS011;68767;53.078;7.386;2023-07-31T08:38:33;20.10;;;7.30;;
79308;SDS011;68767;53.078;7.386;2023-07-31T08:41:02;22.83;;;7.60;;
79308;SDS011;68767;53.078;7.386;2023-07-31T08:43:30;13.70;;;7.32;;
79308;SDS011;68767;53.078;7.386;2023-07-31T08:45:59;19.75;;;6.53;;
79308;SDS011;68767;53.078;7.386;2023-07-31T08:48:27;21.33;;;6.85;;
79308;SDS011;68767;53.078;7.386;2023-07-31T08:50:55;18.73;;;8.75;;
79308;SDS011;68767;53.078;7.386;2023-07-31T08:53:22;22.27;;;7.28;;
79308;SDS011;68767;53.078;7.386;2023-07-31T08:55:50;17.35;;;7.50;;
79308;SDS011;68767;53.078;7.386;2023-07-31T08:58:19;21.30;;;7.47;;
79308;SDS011;68767;53.078;7.386;2023-07-31T09:00:47;15.15;;;6.55;;
79308;SDS011;68767;53.078;7.386;2023-07-31T09:03:19;15.55;;;6.35;;
79308;SDS011;68767;53.078;7.386;2023-07-31T09:05:49;12.93;;;6.28;;
79308;SDS011;68767;53.078;7.386;2023-07-31T09:08:18;16.23;;;6.97;;
79308;SDS011;68767;53.078;7.386;2023-07-31T09:10:47;13.40;;;6.15;;
79308;SDS011;68767;53.078;7.386;2023-07-31T09:13:18;12.93;;;5.63;;
79308;SDS011;68767;53.078;7.386;2023-07-31T09:15:45;9.40;;;4.93;;
79308;SDS011;68767;53.078;7.386;2023-07-31T09:18:13;12.32;;;4.78;;
79308;SDS011;68767;53.078;7.386;2023-07-31T09:20:45;12.07;;;4.95;;
79308;SDS011;68767;53.078;7.386;2023-07-31T09:23:26;11.25;;;5.35;;
79308;SDS011;68767;53.078;7.386;2023-07-31T09:26:06;11.82;;;4.85;;
79308;SDS011;68767;53.078;7.386;2023-07-31T09:28:33;11.77;;;4.63;;
79308;SDS011;68767;53.078;7.386;2023-07-31T09:31:00;9.00;;;5.00;;
79308;SDS011;68767;53.078;7.386;2023-07-31T09:33:27;7.93;;;4.70;;
79308;SDS011;68767;53.078;7.386;2023-07-31T09:35:54;8.18;;;3.60;;
79308;SDS011;68767;53.078;7.386;2023-07-31T09:38:21;9.65;;;4.35;;
79308;SDS011;68767;53.078;7.386;2023-07-31T09:40:48;7.97;;;4.80;;
79308;SDS011;68767;53.078;7.386;2023-07-31T09:43:19;9.95;;;4.05;;
79308;SDS011;68767;53.078;7.386;2023-07-31T09:45:47;8.18;;;3.70;;
79308;SDS011;68767;53.078;7.386;2023-07-31T09:48:17;8.80;;;4.22;;
79308;SDS011;68767;53.078;7.386;2023-07-31T09:50:46;8.00;;;3.97;;
79308;SDS011;68767;53.078;7.386;2023-07-31T09:53:15;7.95;;;3.97;;
79308;SDS011;68767;53.078;7.386;2023-07-31T09:55:43;8.05;;;3.83;;
79308;SDS011;68767;53.078;7.386;2023-07-31T09:58:12;9.52;;;3.38;;
79308;SDS011;68767;53.078;7.386;2023-07-31T10:00:39;7.43;;;3.92;;
79308;SDS011;68767;53.078;7.386;2023-07-31T10:03:08;6.47;;;3.22;;
79308;SDS011;68767;53.078;7.386;2023-07-31T10:08:08;5.10;;;3.13;;
79308;SDS011;68767;53.078;7.386;2023-07-31T10:10:37;7.22;;;2.22;;
79308;SDS011;68767;53.078;7.386;2023-07-31T10:13:08;5.40;;;2.72;;
79308;SDS011;68767;53.078;7.386;2023-07-31T10:15:35;5.63;;;2.80;;
79308;SDS011;68767;53.078;7.386;2023-07-31T10:18:03;6.55;;;2.50;;
79308;SDS011;68767;53.078;7.386;2023-07-31T10:20:33;5.55;;;2.88;;
79308;SDS011;68767;53.078;7.386;2023-07-31T10:23:00;5.60;;;3.10;;
79308;SDS011;68767;53.078;7.386;2023-07-31T10:25:28;4.93;;;2.30;;
79308;SDS011;68767;53.078;7.386;2023-07-31T10:27:56;4.65;;;2.25;;
79308;SDS011;68767;53.078;7.386;2023-07-31T10:30:25;4.75;;;2.25;;
79308;SDS011;68767;53.078;7.386;2023-07-31T10:32:56;4.93;;;2.00;;
79308;SDS011;68767;53.078;7.386;2023-07-31T10:35:24;4.25;;;1.88;;
79308;SDS011;68767;53.078;7.386;2023-07-31T10:37:51;3.83;;;1.83;;
79308;SDS011;68767;53.078;7.386;2023-07-31T10:40:19;3.42;;;1.83;;
79308;SDS011;68767;53.078;7.386;2023-07-31T10:50:31;4.03;;;1.70;;
79308;SDS011;68767;53.078;7.386;2023-07-31T10:52:59;5.07;;;2.28;;
79308;SDS011;68767;53.078;7.386;2023-07-31T10:55:40;4.90;;;1.92;;
79308;SDS011;68767;53.078;7.386;2023-07-31T11:05:46;3.70;;;2.10;;
79308;SDS011;68767;53.078;7.386;2023-07-31T11:08:18;2.95;;;1.70;;
79308;SDS011;68767;53.078;7.386;2023-07-31T11:10:47;4.78;;;1.70;;
79308;SDS011;68767;53.078;7.386;2023-07-31T11:13:16;4.47;;;1.65;;
79308;SDS011;68767;53.078;7.386;2023-07-31T11:15:43;4.15;;;2.45;;
79308;SDS011;68767;53.078;7.386;2023-07-31T11:18:10;2.95;;;1.63;;
79308;SDS011;68767;53.078;7.386;2023-07-31T11:20:38;2.58;;;1.48;;
79308;SDS011;68767;53.078;7.386;2023-07-31T11:23:06;3.80;;;1.90;;
79308;SDS011;68767;53.078;7.386;2023-07-31T11:25:35;4.78;;;2.40;;
79308;SDS011;68767;53.078;7.386;2023-07-31T11:28:06;3.03;;;2.00;;
79308;SDS011;68767;53.078;7.386;2023-07-31T11:30:38;3.45;;;2.20;;
79308;SDS011;68767;53.078;7.386;2023-07-31T11:33:08;2.97;;;2.15;;
79308;SDS011;68767;53.078;7.386;2023-07-31T11:35:40;4.63;;;2.67;;
79308;SDS011;68767;53.078;7.386;2023-07-31T11:38:24;3.65;;;2.38;;
79308;SDS011;68767;53.078;7.386;2023-07-31T11:40:56;4.22;;;2.70;;
79308;SDS011;68767;53.078;7.386;2023-07-31T11:43:33;7.63;;;2.88;;
79308;SDS011;68767;53.078;7.386;2023-07-31T11:46:02;5.00;;;3.28;;
79308;SDS011;68767;53.078;7.386;2023-07-31T11:48:31;5.10;;;2.90;;
79308;SDS011;68767;53.078;7.386;2023-07-31T11:51:00;9.35;;;3.35;;
79308;SDS011;68767;53.078;7.386;2023-07-31T11:53:31;4.38;;;2.90;;
79308;SDS011;68767;53.078;7.386;2023-07-31T11:56:10;5.72;;;2.85;;
79308;SDS011;68767;53.078;7.386;2023-07-31T11:58:39;4.47;;;2.70;;
79308;SDS011;68767;53.078;7.386;2023-07-31T12:01:08;3.65;;;2.38;;
79308;SDS011;68767;53.078;7.386;2023-07-31T12:03:35;2.95;;;2.00;;
79308;SDS011;68767;53.078;7.386;2023-07-31T12:06:02;3.67;;;2.38;;
79308;SDS011;68767;53.078;7.386;2023-07-31T12:08:29;3.38;;;2.20;;
79308;SDS011;68767;53.078;7.386;2023-07-31T12:11:02;4.53;;;2.17;;
79308;SDS011;68767;53.078;7.386;2023-07-31T12:13:31;5.38;;;2.47;;
79308;SDS011;68767;53.078;7.386;2023-07-31T12:16:00;4.35;;;2.55;;
79308;SDS011;68767;53.078;7.386;2023-07-31T12:18:31;5.93;;;2.90;;
79308;SDS011;68767;53.078;7.386;2023-07-31T12:21:02;4.63;;;2.50;;
79308;SDS011;68767;53.078;7.386;2023-07-31T12:28:28;4.82;;;2.55;;
79308;SDS011;68767;53.078;7.386;2023-07-31T12:30:59;2.70;;;1.77;;
79308;SDS011;68767;53.078;7.386;2023-07-31T12:33:34;3.78;;;2.20;;
79308;SDS011;68767;53.078;7.386;2023-07-31T12:36:03;4.50;;;1.73;;
79308;SDS011;68767;53.078;7.386;2023-07-31T12:38:31;5.95;;;2.08;;
79308;SDS011;68767;53.078;7.386;2023-07-31T12:40:58;9.95;;;2.00;;
79308;SDS011;68767;53.078;7.386;2023-07-31T12:43:25;16.20;;;2.13;;
79308;SDS011;68767;53.078;7.386;2023-07-31T12:45:53;16.85;;;2.85;;
79308;SDS011;68767;53.078;7.386;2023-07-31T12:48:22;4.82;;;1.75;;
79308;SDS011;68767;53.078;7.386;2023-07-31T12:50:49;5.45;;;1.98;;
79308;SDS011;68767;53.078;7.386;2023-07-31T12:53:16;20.17;;;1.92;;
79308;SDS011;68767;53.078;7.386;2023-07-31T12:55:43;5.07;;;1.80;;
79308;SDS011;68767;53.078;7.386;2023-07-31T12:58:10;3.83;;;1.50;;
79308;SDS011;68767;53.078;7.386;2023-07-31T13:00:37;2.00;;;1.23;;
79308;SDS011;68767;53.078;7.386;2023-07-31T13:03:04;1.90;;;1.00;;
79308;SDS011;68767;53.078;7.386;2023-07-31T13:05:31;1.90;;;1.20;;
79308;SDS011;68767;53.078;7.386;2023-07-31T13:07:59;3.95;;;1.00;;
79308;SDS011;68767;53.078;7.386;2023-07-31T13:10:26;3.03;;;1.15;;
79308;SDS011;68767;53.078;7.386;2023-07-31T13:12:55;4.20;;;1.20;;
79308;SDS011;68767;53.078;7.386;2023-07-31T13:15:22;3.08;;;0.98;;
79308;SDS011;68767;53.078;7.386;2023-07-31T13:17:49;1.50;;;1.00;;
79308;SDS011;68767;53.078;7.386;2023-07-31T13:20:16;1.60;;;0.77;;
79308;SDS011;68767;53.078;7.386;2023-07-31T13:22:43;2.42;;;1.00;;
79308;SDS011;68767;53.078;7.386;2023-07-31T13:25:12;2.95;;;1.10;;
79308;SDS011;68767;53.078;7.386;2023-07-31T13:27:39;6.20;;;1.30;;
79308;SDS011;68767;53.078;7.386;2023-07-31T13:30:06;1.88;;;1.23;;
79308;SDS011;68767;53.078;7.386;2023-07-31T13:32:34;3.55;;;1.30;;
79308;SDS011;68767;53.078;7.386;2023-07-31T13:35:05;2.95;;;1.20;;
79308;SDS011;68767;53.078;7.386;2023-07-31T13:37:33;4.22;;;1.10;;
79308;SDS011;68767;53.078;7.386;2023-07-31T13:40:01;3.80;;;1.60;;
79308;SDS011;68767;53.078;7.386;2023-07-31T13:42:31;2.50;;;1.55;;
79308;SDS011;68767;53.078;7.386;2023-07-31T13:44:59;4.03;;;1.70;;
79308;SDS011;68767;53.078;7.386;2023-07-31T13:47:30;3.30;;;1.60;;
79308;SDS011;68767;53.078;7.386;2023-07-31T13:49:58;3.78;;;1.50;;
79308;SDS011;68767;53.078;7.386;2023-07-31T13:52:25;3.33;;;1.63;;
79308;SDS011;68767;53.078;7.386;2023-07-31T13:54:52;6.15;;;1.95;;
79308;SDS011;68767;53.078;7.386;2023-07-31T13:57:19;3.83;;;1.35;;
79308;SDS011;68767;53.078;7.386;2023-07-31T13:59:46;3.78;;;2.00;;
79308;SDS011;68767;53.078;7.386;2023-07-31T14:02:13;3.60;;;2.15;;
79308;SDS011;68767;53.078;7.386;2023-07-31T14:04:41;6.28;;;2.22;;
79308;SDS011;68767;53.078;7.386;2023-07-31T14:07:08;4.80;;;2.30;;
79308;SDS011;68767;53.078;7.386;2023-07-31T14:09:35;3.65;;;1.65;;
79308;SDS011;68767;53.078;7.386;2023-07-31T14:12:02;3.85;;;1.90;;
79308;SDS011;68767;53.078;7.386;2023-07-31T14:14:29;4.55;;;2.10;;
79308;SDS011;68767;53.078;7.386;2023-07-31T14:16:56;3.30;;;1.70;;
79308;SDS011;68767;53.078;7.386;2023-07-31T14:19:23;5.32;;;1.77;;
79308;SDS011;68767;53.078;7.386;2023-07-31T14:21:52;5.55;;;1.92;;
79308;SDS011;68767;53.078;7.386;2023-07-31T14:24:35;4.72;;;1.60;;
79308;SDS011;68767;53.078;7.386;2023-07-31T14:27:02;4.80;;;1.73;;
79308;SDS011;68767;53.078;7.386;2023-07-31T14:29:29;7.10;;;2.75;;
79308;SDS011;68767;53.078;7.386;2023-07-31T14:31:57;5.30;;;2.25;;
79308;SDS011;68767;53.078;7.386;2023-07-31T14:34:24;5.80;;;2.63;;
79308;SDS011;68767;53.078;7.386;2023-07-31T14:36:50;4.82;;;3.10;;
79308;SDS011;68767;53.078;7.386;2023-07-31T14:39:17;7.47;;;2.97;;
79308;SDS011;68767;53.078;7.386;2023-07-31T14:41:44;5.78;;;2.92;;
79308;SDS011;68767;53.078;7.386;2023-07-31T14:44:11;6.15;;;2.80;;
79308;SDS011;68767;53.078;7.386;2023-07-31T14:46:38;8.52;;;2.53;;
79308;SDS011;68767;53.078;7.386;2023-07-31T14:49:06;8.88;;;2.53;;
79308;SDS011;68767;53.078;7.386;2023-07-31T14:51:32;8.90;;;3.45;;
79308;SDS011;68767;53.078;7.386;2023-07-31T14:53:59;8.23;;;3.22;;
79308;SDS011;68767;53.078;7.386;2023-07-31T14:56:26;5.88;;;3.13;;
79308;SDS011;68767;53.078;7.386;2023-07-31T14:58:54;8.93;;;3.83;;
79308;SDS011;68767;53.078;7.386;2023-07-31T15:01:21;5.47;;;3.05;;
79308;SDS011;68767;53.078;7.386;2023-07-31T15:03:48;8.63;;;3.25;;
79308;SDS011;68767;53.078;7.386;2023-07-31T15:06:15;7.95;;;3.22;;
79308;SDS011;68767;53.078;7.386;2023-07-31T15:08:42;10.75;;;3.67;;
79308;SDS011;68767;53.078;7.386;2023-07-31T15:11:09;10.63;;;3.50;;
79308;SDS011;68767;53.078;7.386;2023-07-31T15:13:36;11.63;;;4.03;;
79308;SDS011;68767;53.078;7.386;2023-07-31T15:16:04;10.38;;;3.63;;
79308;SDS011;68767;53.078;7.386;2023-07-31T15:18:31;19.15;;;4.32;;
79308;SDS011;68767;53.078;7.386;2023-07-31T15:20:58;8.52;;;3.15;;